Time;durP1;ratioP1;P1;durP2;ratioP2;P2;SDS_P1;SDS_P2;PMS_P1;PMS_P2;Temp;Humidity;BMP_temperature;BMP_pressure;BME280_temperature;BME280_humidity;BME280_pressure;Samples;Min_cycle;Max_cycle;Signal;HPM_P1;HPM_P2
2022/04/10 00:05:49;;;;;;;0.20;0.00;;;12.90;99.90;;;;;;25410561;23;20211;-64
2022/04/10 00:15:54;;;;;;;0.20;0.10;;;12.80;99.90;;;;;;25411217;23;20194;-62
2022/04/10 00:25:58;;;;;;;0.20;0.10;;;12.90;99.90;;;;;;25412895;23;20194;-62
2022/04/10 00:36:03;;;;;;;0.20;0.10;;;13.00;99.90;;;;;;25386669;23;20183;-63
2022/04/10 00:46:07;;;;;;;0.20;0.00;;;13.10;99.90;;;;;;25412387;23;20194;-63
2022/04/10 00:56:13;;;;;;;0.20;0.10;;;13.30;99.90;;;;;;25415080;23;20202;-63
2022/04/10 01:06:17;;;;;;;0.20;0.00;;;13.50;99.90;;;;;;25418773;23;20195;-74
2022/04/10 01:16:23;;;;;;;0.20;0.10;;;13.50;99.90;;;;;;25420096;23;20198;-74
2022/04/10 01:26:29;;;;;;;0.20;0.07;;;13.60;99.90;;;;;;25420321;23;20226;-62
2022/04/10 01:36:34;;;;;;;0.20;0.00;;;13.60;99.90;;;;;;25418730;23;20160;-63
2022/04/10 01:46:39;;;;;;;0.20;0.00;;;13.70;99.90;;;;;;25420597;23;20203;-65
2022/04/10 01:56:43;;;;;;;0.20;0.10;;;13.70;99.90;;;;;;25419063;23;20202;-63
2022/04/10 02:06:48;;;;;;;0.20;0.07;;;13.70;99.90;;;;;;25416726;23;20270;-63
2022/04/10 02:16:52;;;;;;;0.20;0.10;;;13.60;99.90;;;;;;25414555;23;20180;-62
2022/04/10 02:26:57;;;;;;;0.20;0.10;;;13.60;99.90;;;;;;25416475;23;20188;-60
2022/04/10 02:37:01;;;;;;;0.20;0.00;;;13.50;99.90;;;;;;25414759;23;20171;-64
2022/04/10 02:47:07;;;;;;;0.20;0.03;;;13.30;99.90;;;;;;25389498;23;20373;-64
2022/04/10 02:57:11;;;;;;;0.20;0.10;;;13.20;99.90;;;;;;25414409;23;20191;-63
2022/04/10 03:07:16;;;;;;;0.20;0.10;;;12.90;99.90;;;;;;25416790;23;20183;-62
2022/04/10 03:17:20;;;;;;;0.20;0.10;;;12.50;99.90;;;;;;25413430;23;20179;-62
2022/04/10 03:27:26;;;;;;;0.20;0.10;;;12.40;99.90;;;;;;25414311;23;20187;-63
2022/04/10 03:37:29;;;;;;;0.20;0.10;;;12.20;99.90;;;;;;25414216;23;20211;-70
2022/04/10 03:47:34;;;;;;;0.20;0.10;;;12.30;99.90;;;;;;25414019;23;20184;-69
2022/04/10 03:57:38;;;;;;;0.20;0.10;;;11.90;99.90;;;;;;25413158;23;20206;-69
2022/04/10 04:07:43;;;;;;;0.20;0.10;;;11.70;99.90;;;;;;25389176;23;20198;-69
2022/04/10 04:17:47;;;;;;;0.20;0.10;;;11.40;99.90;;;;;;25414168;23;20183;-70
2022/04/10 04:27:52;;;;;;;0.20;0.10;;;11.60;99.90;;;;;;25412606;23;20175;-71
2022/04/10 04:37:57;;;;;;;0.20;0.10;;;11.60;99.90;;;;;;25422068;23;20163;-71
2022/04/10 04:48:06;;;;;;;0.20;0.10;;;11.50;99.90;;;;;;25419601;23;20195;-75
2022/04/10 04:58:09;;;;;;;0.20;0.10;;;11.70;99.90;;;;;;25394077;23;20196;-75
2022/04/10 05:08:15;;;;;;;0.20;0.10;;;11.80;99.90;;;;;;25395590;23;20187;-74
2022/04/10 05:18:19;;;;;;;0.20;0.10;;;12.10;99.90;;;;;;25418516;23;20187;-73
2022/04/10 05:28:24;;;;;;;0.20;0.10;;;12.20;99.90;;;;;;25416242;23;20187;-74
2022/04/10 05:38:28;;;;;;;0.20;0.00;;;12.20;99.90;;;;;;25413217;23;20175;-75
2022/04/10 05:48:33;;;;;;;0.20;0.00;;;12.50;99.90;;;;;;25415544;23;20187;-75
2022/04/10 05:58:37;;;;;;;0.20;0.00;;;12.50;99.90;;;;;;25490794;23;20209;-76
2022/04/10 06:08:42;;;;;;;0.20;0.10;;;12.80;99.90;;;;;;25539428;23;20269;-75
2022/04/10 06:18:46;;;;;;;0.20;0.10;;;13.10;99.90;;;;;;25539140;23;20179;-75
2022/04/10 06:28:53;;;;;;;0.20;0.10;;;13.40;99.90;;;;;;25539144;23;20197;-74
2022/04/10 06:38:56;;;;;;;0.20;0.10;;;13.80;99.90;;;;;;25537572;23;20144;-75
2022/04/10 06:49:02;;;;;;;0.20;0.00;;;14.10;99.90;;;;;;25539289;23;20198;-75
2022/04/10 06:59:06;;;;;;;0.20;0.10;;;14.50;99.90;;;;;;25433676;23;20203;-76
2022/04/10 07:09:11;;;;;;;0.20;0.10;;;14.60;99.90;;;;;;25389407;23;20632;-70
2022/04/10 07:19:15;;;;;;;0.20;0.10;;;15.00;99.90;;;;;;25391115;23;20191;-71
2022/04/10 07:29:20;;;;;;;0.20;0.00;;;15.10;99.90;;;;;;25390137;23;20183;-70
2022/04/10 07:39:23;;;;;;;0.20;0.00;;;15.30;99.90;;;;;;25412686;23;20156;-69
2022/04/10 07:49:29;;;;;;;0.20;0.10;;;15.30;99.90;;;;;;25413179;23;20210;-70
2022/04/10 07:59:32;;;;;;;0.20;0.10;;;15.20;99.90;;;;;;25411612;23;20191;-70
2022/04/10 08:09:38;;;;;;;0.20;0.00;;;15.30;99.90;;;;;;25405488;23;20178;-69
2022/04/10 08:19:42;;;;;;;0.20;0.10;;;15.10;99.90;;;;;;25407261;23;20195;-72
2022/04/10 08:29:47;;;;;;;0.20;0.00;;;16.10;99.90;;;;;;25382901;23;20187;-72
2022/04/10 08:39:51;;;;;;;0.20;0.10;;;15.80;99.90;;;;;;25405741;23;20183;-73
2022/04/10 08:49:56;;;;;;;0.20;0.10;;;15.70;99.90;;;;;;25407705;23;20168;-71
2022/04/10 09:00:00;;;;;;;0.20;0.10;;;15.90;99.90;;;;;;25407008;23;20190;-71
2022/04/10 09:10:05;;;;;;;0.20;0.10;;;16.10;99.90;;;;;;25406764;23;20171;-71
2022/04/10 09:20:11;;;;;;;0.20;0.00;;;16.10;99.90;;;;;;25410556;23;20191;-71
2022/04/10 09:30:17;;;;;;;0.20;0.10;;;16.00;99.90;;;;;;25408779;23;20237;-75
2022/04/10 09:40:25;;;;;;;0.20;0.10;;;16.10;99.90;;;;;;25409410;23;20195;-62
2022/04/10 09:50:34;;;;;;;0.20;0.10;;;15.40;99.90;;;;;;25410297;23;20183;-62
2022/04/10 10:00:40;;;;;;;0.20;0.00;;;15.20;99.90;;;;;;25530093;23;20202;-64
2022/04/10 10:10:46;;;;;;;0.20;0.00;;;15.20;99.90;;;;;;25531163;23;20193;-65
2022/04/10 10:20:51;;;;;;;0.20;0.10;;;15.80;99.90;;;;;;25506031;23;20211;-64
2022/04/10 10:31:18;;;;;;;0.20;0.10;;;17.30;99.90;;;;;;25531271;23;20174;-65
2022/04/10 10:41:33;;;;;;;0.20;0.10;;;18.30;99.90;;;;;;25528574;23;20252;-66
2022/04/10 10:51:43;;;;;;;0.20;0.10;;;18.70;99.90;;;;;;25517902;23;20191;-63
2022/04/10 11:01:56;;;;;;;0.20;0.10;;;18.90;99.90;;;;;;25424648;23;20243;-81
2022/04/10 11:12:50;;;;;;;0.20;0.10;;;19.20;99.90;;;;;;25438747;23;20295;-74
2022/04/10 11:23:41;;;;;;;0.20;0.10;;;19.70;99.90;;;;;;25435768;23;20196;-71
2022/04/10 11:34:28;;;;;;;0.20;0.10;;;19.10;99.90;;;;;;25436792;23;20172;-69
2022/04/10 11:45:13;;;;;;;0.20;0.10;;;19.50;99.90;;;;;;25436630;23;20227;-74
2022/04/10 11:55:58;;;;;;;0.20;0.10;;;20.10;99.90;;;;;;25402586;23;20195;-71
2022/04/10 12:06:43;;;;;;;0.20;0.00;;;20.80;99.90;;;;;;25392480;23;20235;-76
2022/04/10 12:17:28;;;;;;;0.20;0.10;;;20.70;99.90;;;;;;25397935;23;20188;-79
2022/04/10 12:28:33;;;;;;;0.20;0.10;;;19.50;99.90;;;;;;25406856;23;20227;-73
2022/04/10 12:39:25;;;;;;;0.20;0.10;;;19.50;99.90;;;;;;25405260;23;20179;-73
2022/04/10 12:50:12;;;;;;;0.20;0.10;;;19.90;99.90;;;;;;25412802;23;20206;-77
2022/04/10 13:00:59;;;;;;;0.20;0.10;;;20.60;99.90;;;;;;25416753;23;20255;-74
2022/04/10 13:11:44;;;;;;;0.20;0.10;;;21.30;99.90;;;;;;25418606;23;20167;-78
2022/04/10 13:22:29;;;;;;;0.20;0.00;;;21.50;99.90;;;;;;25414610;23;20206;-76
2022/04/10 13:33:15;;;;;;;0.20;0.10;;;22.70;99.90;;;;;;25416348;23;20246;-78
2022/04/10 13:44:01;;;;;;;0.20;0.00;;;23.70;99.90;;;;;;25413363;23;20199;-75
2022/04/10 13:54:45;;;;;;;0.20;0.10;;;23.70;99.90;;;;;;25410938;23;20267;-75
2022/04/10 14:05:31;;;;;;;0.20;0.00;;;24.10;99.90;;;;;;25412166;23;20214;-77
2022/04/10 14:16:16;;;;;;;0.20;0.00;;;24.30;99.90;;;;;;25410546;23;20188;-77
2022/04/10 14:27:01;;;;;;;0.20;0.03;;;24.10;99.90;;;;;;25413504;23;20203;-75
2022/04/10 14:37:46;;;;;;;0.20;0.00;;;23.70;99.90;;;;;;25413325;23;20185;-75
2022/04/10 14:47:51;;;;;;;0.20;0.00;;;24.50;99.90;;;;;;25419839;23;20215;-75
2022/04/10 14:57:55;;;;;;;0.20;0.05;;;25.40;99.90;;;;;;25417356;23;20199;-78
2022/04/10 15:08:00;;;;;;;0.20;0.00;;;24.60;99.90;;;;;;25418348;23;20226;-75
2022/04/10 15:18:04;;;;;;;0.20;0.00;;;24.60;99.90;;;;;;25388485;23;20226;-75
2022/04/10 15:28:09;;;;;;;0.20;0.00;;;23.80;99.90;;;;;;25417688;23;20207;-74
2022/04/10 15:38:13;;;;;;;0.20;0.00;;;23.80;99.90;;;;;;25414900;23;20247;-74
2022/04/10 15:48:18;;;;;;;0.20;0.07;;;22.80;99.90;;;;;;25414414;23;20210;-76
2022/04/10 15:58:22;;;;;;;0.20;0.00;;;21.10;99.90;;;;;;25413160;23;20215;-75
2022/04/10 16:08:27;;;;;;;0.20;0.10;;;19.80;99.90;;;;;;25384825;23;20191;-71
2022/04/10 16:18:31;;;;;;;0.20;0.10;;;19.40;99.90;;;;;;25400912;23;20258;-71
2022/04/10 16:38:57;;;;;;;0.20;0.10;;;18.10;99.90;;;;;;25409565;23;20198;-69
2022/04/10 16:49:03;;;;;;;0.20;0.10;;;17.80;99.90;;;;;;25412361;23;20223;-70
2022/04/10 16:59:07;;;;;;;0.20;0.10;;;18.30;99.90;;;;;;25409470;23;20234;-70
2022/04/10 17:09:13;;;;;;;0.20;0.10;;;17.60;99.90;;;;;;25411723;23;20199;-71
2022/04/10 17:19:16;;;;;;;0.20;0.10;;;17.40;99.90;;;;;;25407991;23;20242;-71
2022/04/10 17:29:21;;;;;;;0.20;0.10;;;17.00;99.90;;;;;;25381072;23;20207;-72
2022/04/10 17:39:25;;;;;;;0.20;0.10;;;17.20;99.90;;;;;;25404366;23;20248;-71
2022/04/10 17:49:30;;;;;;;0.20;0.10;;;16.80;99.90;;;;;;25413753;23;20214;-71
2022/04/10 17:59:36;;;;;;;0.20;0.10;;;16.40;99.90;;;;;;25419019;23;20219;-73
2022/04/10 18:09:41;;;;;;;0.20;0.03;;;15.90;99.90;;;;;;25417733;23;20203;-74
2022/04/10 18:19:45;;;;;;;0.20;0.10;;;15.60;99.90;;;;;;25414436;23;20194;-74
2022/04/10 18:29:50;;;;;;;0.20;0.00;;;15.30;99.90;;;;;;25419909;23;20202;-75
2022/04/10 18:39:54;;;;;;;0.20;0.10;;;15.10;99.90;;;;;;25419292;23;20164;-73
2022/04/10 18:49:59;;;;;;;0.20;0.00;;;15.10;99.90;;;;;;25419352;23;20198;-75
2022/04/10 19:00:05;;;;;;;0.20;0.00;;;15.00;99.90;;;;;;25417405;23;20219;-74
2022/04/10 19:10:11;;;;;;;0.20;0.00;;;15.10;99.90;;;;;;25413818;23;20243;-78
2022/04/10 19:20:14;;;;;;;0.20;0.10;;;15.40;99.90;;;;;;25418962;23;20255;-78
2022/04/10 19:30:20;;;;;;;0.20;0.10;;;15.30;99.90;;;;;;25416420;23;20210;-73
2022/04/10 19:40:24;;;;;;;0.20;0.10;;;15.30;99.90;;;;;;25417084;23;20171;-73
2022/04/10 19:50:29;;;;;;;0.20;0.10;;;15.20;99.90;;;;;;25417632;23;20734;-75
2022/04/10 20:00:33;;;;;;;0.20;0.10;;;15.00;99.90;;;;;;25417710;23;20203;-74
2022/04/10 20:10:38;;;;;;;0.20;0.10;;;14.90;99.90;;;;;;25420451;23;20187;-75
2022/04/10 20:20:42;;;;;;;0.20;0.00;;;14.50;99.90;;;;;;25419693;23;20369;-72
2022/04/10 20:30:48;;;;;;;0.20;0.00;;;14.60;99.90;;;;;;25419671;23;20301;-74
2022/04/10 20:40:52;;;;;;;0.20;0.00;;;14.40;99.90;;;;;;25418547;23;20182;-73
2022/04/10 20:50:58;;;;;;;0.20;0.10;;;14.40;99.90;;;;;;25416394;23;20218;-73
2022/04/10 21:01:02;;;;;;;0.20;0.10;;;14.10;99.90;;;;;;25418382;23;20160;-72
2022/04/10 21:11:10;;;;;;;0.20;0.10;;;13.90;99.90;;;;;;25418217;23;20183;-72
2022/04/10 21:21:14;;;;;;;0.20;0.10;;;13.80;99.90;;;;;;25420745;23;20214;-74
2022/04/10 21:31:19;;;;;;;0.20;0.10;;;13.70;99.90;;;;;;25421063;23;20311;-73
2022/04/10 21:41:24;;;;;;;0.20;0.10;;;13.60;99.90;;;;;;25411523;23;20194;-73
2022/04/10 21:51:29;;;;;;;0.20;0.00;;;13.50;99.90;;;;;;25386167;23;20767;-75
2022/04/10 22:01:33;;;;;;;0.20;0.10;;;13.40;99.90;;;;;;25410101;23;20176;-74
2022/04/10 22:11:38;;;;;;;0.20;0.00;;;13.30;99.90;;;;;;25407907;23;20208;-74
2022/04/10 22:21:42;;;;;;;0.20;0.10;;;13.30;99.90;;;;;;25409637;23;20168;-73
2022/04/10 22:31:47;;;;;;;0.20;0.10;;;13.20;99.90;;;;;;25410787;23;20238;-72
2022/04/10 22:41:51;;;;;;;0.20;0.10;;;13.20;99.90;;;;;;25410254;23;20191;-74
2022/04/10 22:51:56;;;;;;;0.20;0.10;;;13.10;99.90;;;;;;25409612;23;20211;-73
2022/04/10 23:02:00;;;;;;;0.20;0.10;;;13.00;99.90;;;;;;25411500;23;20470;-73
2022/04/10 23:12:06;;;;;;;0.20;0.10;;;12.70;99.90;;;;;;25409062;23;20203;-73
2022/04/10 23:22:09;;;;;;;0.20;0.00;;;12.30;99.90;;;;;;25410408;23;20207;-73
2022/04/10 23:32:15;;;;;;;0.20;0.10;;;12.10;99.90;;;;;;25408453;23;20179;-73
2022/04/10 23:42:18;;;;;;;0.20;0.10;;;12.00;99.90;;;;;;25410863;23;20578;-74
2022/04/10 23:52:24;;;;;;;0.20;0.10;;;12.10;99.90;;;;;;25407732;23;20199;-72
